createdAt,value
2022-11-29T00:02:22.652Z,13.60
2022-11-29T00:04:52.215Z,14.60
2022-11-29T00:07:20.299Z,12.97
2022-11-29T00:09:48.368Z,12.93
2022-11-29T00:12:16.458Z,12.47
2022-11-29T00:14:44.773Z,13.10
2022-11-29T00:17:12.956Z,15.13
2022-11-29T00:19:41.180Z,15.67
2022-11-29T00:22:10.584Z,14.37
2022-11-29T00:24:38.637Z,15.43
2022-11-29T00:27:06.769Z,16.67
2022-11-29T00:29:34.801Z,15.97
2022-11-29T00:32:03.138Z,14.90
2022-11-29T00:34:31.355Z,14.93
2022-11-29T00:36:59.496Z,13.97
2022-11-29T00:39:28.994Z,13.13
2022-11-29T00:41:57.010Z,14.67
2022-11-29T00:44:25.237Z,13.87
2022-11-29T00:46:53.276Z,15.97
2022-11-29T00:49:21.348Z,15.50
2022-11-29T00:51:49.574Z,15.80
2022-11-29T00:54:18.813Z,15.40
2022-11-29T00:56:48.236Z,15.07
2022-11-29T00:59:16.306Z,15.73
2022-11-29T01:01:44.378Z,15.27
2022-11-29T01:04:12.641Z,16.97
2022-11-29T01:06:40.634Z,14.90
2022-11-29T01:09:08.700Z,15.93
2022-11-29T01:11:37.137Z,15.73
2022-11-29T01:14:06.608Z,16.27
2022-11-29T01:16:35.058Z,16.27
2022-11-29T01:19:03.937Z,14.43
2022-11-29T01:21:32.139Z,15.00
2022-11-29T01:24:01.045Z,15.87
2022-11-29T01:26:30.894Z,15.43
2022-11-29T01:28:59.877Z,16.27
2022-11-29T01:31:31.420Z,18.63
2022-11-29T01:34:01.460Z,16.30
2022-11-29T01:36:29.625Z,17.20
2022-11-29T01:39:00.669Z,15.83
2022-11-29T01:44:02.345Z,18.57
2022-11-29T01:46:34.281Z,16.17
2022-11-29T01:49:06.553Z,16.27
2022-11-29T01:51:37.128Z,16.03
2022-11-29T01:54:06.484Z,16.00
2022-11-29T01:56:35.803Z,17.73
2022-11-29T01:59:07.360Z,18.03
2022-11-29T02:01:37.810Z,17.17
2022-11-29T02:04:07.082Z,18.80
2022-11-29T02:06:36.614Z,17.30
2022-11-29T02:09:04.860Z,17.70
2022-11-29T02:12:01.405Z,16.00
2022-11-29T02:14:52.627Z,16.47
2022-11-29T02:20:35.947Z,14.37
2022-11-29T02:23:24.642Z,15.03
2022-11-29T02:26:04.625Z,14.70
2022-11-29T02:29:04.661Z,13.70
2022-11-29T02:32:07.988Z,12.27
2022-11-29T02:34:55.066Z,13.10
2022-11-29T02:37:45.197Z,15.47
2022-11-29T02:40:31.723Z,14.93
2022-11-29T02:43:20.498Z,15.43
2022-11-29T02:46:04.529Z,16.70
2022-11-29T02:48:52.782Z,16.47
2022-11-29T02:51:29.471Z,15.67
2022-11-29T02:54:02.753Z,16.53
2022-11-29T02:56:38.700Z,17.40
2022-11-29T02:59:12.740Z,18.37
2022-11-29T03:01:53.320Z,16.53
2022-11-29T03:04:32.533Z,15.70
2022-11-29T03:07:08.288Z,16.10
2022-11-29T03:09:45.120Z,16.13
2022-11-29T03:12:21.939Z,15.23
2022-11-29T03:14:58.569Z,15.87
2022-11-29T03:17:43.222Z,16.10
2022-11-29T03:20:29.687Z,16.10
2022-11-29T03:23:14.959Z,17.77
2022-11-29T03:25:47.378Z,17.13
2022-11-29T03:28:20.338Z,18.30
2022-11-29T03:30:57.178Z,15.97
2022-11-29T03:33:33.046Z,15.53
2022-11-29T03:36:09.767Z,17.93
2022-11-29T03:38:41.774Z,18.47
2022-11-29T03:41:21.017Z,17.87
2022-11-29T03:43:56.189Z,16.63
2022-11-29T03:46:30.532Z,17.50
2022-11-29T03:49:04.513Z,15.70
2022-11-29T03:51:48.016Z,16.53
2022-11-29T03:54:22.323Z,16.57
2022-11-29T03:56:51.071Z,17.83
2022-11-29T03:59:52.534Z,16.67
2022-11-29T04:02:47.637Z,17.93
2022-11-29T04:05:29.325Z,17.83
2022-11-29T04:08:12.661Z,16.83
2022-11-29T04:11:07.245Z,17.67
2022-11-29T04:14:05.888Z,16.30
2022-11-29T04:17:20.405Z,17.83
2022-11-29T04:20:09.439Z,15.67
2022-11-29T04:23:08.241Z,16.30
2022-11-29T04:25:49.808Z,16.30
2022-11-29T04:28:53.962Z,16.13
2022-11-29T04:31:36.271Z,16.30
2022-11-29T04:34:24.631Z,17.57
2022-11-29T04:37:15.754Z,15.43
2022-11-29T04:39:58.533Z,15.55
2022-11-29T04:42:40.134Z,14.93
2022-11-29T04:45:36.471Z,14.33
2022-11-29T04:48:20.363Z,13.60
2022-11-29T04:51:00.683Z,15.33
2022-11-29T04:53:39.960Z,13.55
2022-11-29T04:56:16.313Z,12.83
2022-11-29T04:58:51.920Z,13.83
2022-11-29T05:01:31.203Z,13.27
2022-11-29T05:04:05.679Z,13.27
2022-11-29T05:06:40.027Z,13.07
2022-11-29T05:09:17.955Z,12.87
2022-11-29T05:11:59.779Z,12.50
2022-11-29T05:14:42.336Z,13.57
2022-11-29T05:17:27.105Z,12.70
2022-11-29T05:20:05.402Z,11.53
2022-11-29T05:22:41.520Z,13.37
2022-11-29T05:25:29.010Z,13.50
2022-11-29T05:28:05.699Z,14.93
2022-11-29T05:30:56.950Z,15.07
2022-11-29T05:33:46.048Z,12.73
2022-11-29T05:36:25.605Z,14.87
2022-11-29T05:39:21.650Z,13.63
2022-11-29T05:42:04.859Z,14.37
2022-11-29T05:44:38.361Z,15.00
2022-11-29T05:47:10.095Z,15.73
2022-11-29T05:49:45.492Z,15.10
2022-11-29T05:52:25.349Z,16.03
2022-11-29T05:55:18.146Z,15.80
2022-11-29T05:57:54.132Z,14.70
2022-11-29T06:00:23.329Z,14.93
2022-11-29T06:03:00.105Z,14.43
2022-11-29T06:05:37.003Z,15.53
2022-11-29T06:08:12.156Z,15.53
2022-11-29T06:10:42.714Z,17.83
2022-11-29T06:13:21.946Z,15.65
2022-11-29T06:16:19.250Z,14.27
2022-11-29T06:19:20.805Z,16.10
2022-11-29T06:21:59.497Z,14.17
2022-11-29T06:24:42.676Z,14.20
2022-11-29T06:27:26.768Z,14.00
2022-11-29T06:30:03.247Z,13.90
2022-11-29T06:32:40.245Z,14.70
2022-11-29T06:35:12.775Z,13.60
2022-11-29T06:37:47.466Z,14.07
2022-11-29T06:40:17.169Z,13.90
2022-11-29T06:42:45.676Z,14.00
2022-11-29T06:45:15.644Z,13.33
2022-11-29T06:47:45.588Z,11.43
2022-11-29T06:50:34.312Z,13.17
2022-11-29T06:53:10.450Z,12.80
2022-11-29T06:55:48.418Z,13.80
2022-11-29T06:59:31.264Z,13.80
2022-11-29T07:02:05.868Z,14.23
2022-11-29T07:04:51.732Z,16.23
2022-11-29T07:07:22.333Z,13.70
2022-11-29T07:09:56.950Z,15.05
2022-11-29T07:12:25.803Z,13.30
2022-11-29T07:14:54.609Z,14.07
2022-11-29T07:17:28.775Z,12.53
2022-11-29T07:20:08.047Z,14.67
2022-11-29T07:22:49.415Z,13.43
2022-11-29T07:25:28.362Z,14.17
2022-11-29T07:28:05.682Z,15.63
2022-11-29T07:30:43.322Z,14.67
2022-11-29T07:33:20.309Z,15.87
2022-11-29T07:35:56.979Z,16.73
2022-11-29T07:38:34.802Z,15.80
2022-11-29T07:41:13.034Z,15.93
2022-11-29T07:43:48.696Z,16.53
2022-11-29T07:46:16.775Z,17.13
2022-11-29T07:48:44.830Z,16.37
2022-11-29T07:51:12.854Z,16.43
2022-11-29T07:53:44.419Z,16.93
2022-11-29T07:56:16.244Z,16.73
2022-11-29T07:58:44.341Z,17.63
2022-11-29T08:01:12.821Z,17.97
2022-11-29T08:03:42.636Z,16.80
2022-11-29T08:06:10.747Z,15.67
2022-11-29T08:08:43.686Z,16.13
2022-11-29T08:11:15.948Z,14.77
2022-11-29T08:13:44.293Z,16.27
2022-11-29T08:16:17.809Z,15.97
2022-11-29T08:18:45.980Z,14.40
2022-11-29T08:21:17.995Z,16.23
2022-11-29T08:23:46.206Z,15.20
2022-11-29T08:26:18.461Z,16.33
2022-11-29T08:31:15.011Z,16.63
2022-11-29T08:33:44.372Z,15.40
2022-11-29T08:36:15.103Z,17.17
2022-11-29T08:38:43.264Z,16.95
2022-11-29T08:41:14.413Z,16.60
2022-11-29T08:43:44.218Z,16.33
2022-11-29T08:46:17.956Z,16.87
2022-11-29T08:48:46.922Z,17.03
2022-11-29T08:51:15.197Z,17.57
2022-11-29T08:53:42.221Z,15.23
2022-11-29T08:56:59.644Z,14.50
2022-11-29T08:59:01.410Z,15.73
2022-11-29T09:01:30.113Z,14.77
2022-11-29T09:04:02.870Z,16.83
2022-11-29T09:06:32.952Z,17.53
2022-11-29T09:09:02.144Z,17.50
2022-11-29T09:11:31.155Z,18.20
2022-11-29T09:14:02.996Z,18.27
2022-11-29T09:16:34.378Z,18.33
2022-11-29T09:19:02.654Z,18.03
2022-11-29T09:21:32.390Z,18.63
2022-11-29T09:24:01.127Z,19.67
2022-11-29T09:26:30.438Z,18.77
2022-11-29T09:29:01.210Z,19.30
2022-11-29T09:31:31.472Z,15.60
2022-11-29T09:33:59.742Z,15.13
2022-11-29T09:36:29.197Z,13.47
2022-11-29T09:38:59.675Z,13.73
2022-11-29T09:41:57.270Z,12.75
2022-11-29T09:44:34.167Z,13.00
2022-11-29T09:47:20.391Z,13.83
2022-11-29T09:50:17.698Z,14.47
2022-11-29T09:52:53.047Z,14.50
2022-11-29T09:55:47.084Z,14.13
2022-11-29T09:58:18.621Z,16.30
2022-11-29T10:00:50.331Z,16.03
2022-11-29T10:03:26.359Z,16.27
2022-11-29T10:05:59.346Z,16.00
2022-11-29T10:08:34.309Z,14.97
2022-11-29T10:11:15.471Z,14.43
2022-11-29T10:16:21.784Z,13.50
2022-11-29T10:19:41.324Z,12.07
2022-11-29T10:22:18.117Z,11.70
2022-11-29T10:24:49.838Z,13.27
2022-11-29T10:27:23.743Z,14.20
2022-11-29T10:29:52.311Z,12.40
2022-11-29T10:32:24.749Z,12.90
2022-11-29T10:34:57.532Z,13.50
2022-11-29T10:38:30.413Z,14.67
2022-11-29T10:41:07.656Z,12.77
2022-11-29T10:43:37.336Z,13.17
2022-11-29T10:46:07.582Z,14.20
2022-11-29T10:48:35.866Z,13.88
2022-11-29T10:51:16.195Z,15.00
2022-11-29T10:53:45.879Z,14.77
2022-11-29T10:56:25.108Z,14.87
2022-11-29T10:58:58.999Z,15.70
2022-11-29T11:01:29.164Z,14.47
2022-11-29T11:04:31.245Z,15.30
2022-11-29T11:07:02.353Z,15.83
2022-11-29T11:09:57.624Z,15.18
2022-11-29T11:12:29.024Z,14.17
2022-11-29T11:15:16.827Z,16.10
2022-11-29T11:17:57.045Z,16.43
2022-11-29T11:20:30.205Z,16.23
2022-11-29T11:23:05.358Z,15.60
2022-11-29T11:25:35.650Z,15.80
2022-11-29T11:28:18.156Z,15.68
2022-11-29T11:30:52.655Z,15.60
2022-11-29T11:33:22.812Z,16.93
2022-11-29T11:36:10.953Z,17.23
2022-11-29T11:38:43.049Z,17.13
2022-11-29T11:41:19.984Z,18.37
2022-11-29T11:43:58.492Z,16.63
2022-11-29T11:46:47.808Z,17.43
2022-11-29T11:49:26.704Z,16.47
2022-11-29T11:51:54.893Z,16.77
2022-11-29T11:54:24.468Z,16.27
2022-11-29T11:56:53.564Z,16.50
2022-11-29T11:59:26.380Z,15.70
2022-11-29T12:01:54.559Z,16.63
2022-11-29T12:04:26.361Z,15.20
2022-11-29T12:08:07.229Z,15.63
2022-11-29T12:10:36.070Z,16.80
2022-11-29T12:15:38.228Z,17.97
2022-11-29T12:18:12.585Z,18.70
2022-11-29T12:20:45.373Z,17.57
2022-11-29T12:23:36.579Z,18.93
2022-11-29T12:28:40.413Z,16.90
2022-11-29T12:31:25.503Z,18.00
2022-11-29T12:34:04.202Z,19.33
2022-11-29T12:36:41.652Z,19.93
2022-11-29T12:39:40.852Z,19.30
2022-11-29T12:42:18.623Z,18.97
2022-11-29T12:44:55.840Z,19.90
2022-11-29T12:47:36.769Z,20.93
2022-11-29T12:50:21.679Z,17.13
2022-11-29T12:53:01.344Z,18.47
2022-11-29T12:55:37.409Z,16.30
2022-11-29T12:58:15.210Z,16.70
2022-11-29T13:00:51.359Z,17.77
2022-11-29T13:03:27.393Z,18.27
2022-11-29T13:06:08.386Z,16.23
2022-11-29T13:08:52.224Z,19.85
2022-11-29T13:11:24.754Z,19.00
2022-11-29T13:14:19.832Z,19.90
2022-11-29T13:16:56.224Z,18.47
2022-11-29T13:19:34.592Z,20.00
2022-11-29T13:22:11.287Z,20.77
2022-11-29T13:24:44.226Z,17.80
2022-11-29T13:27:19.788Z,18.47
2022-11-29T13:29:50.165Z,17.77
2022-11-29T13:32:37.346Z,17.17
2022-11-29T13:35:13.746Z,15.97
2022-11-29T13:37:54.772Z,16.77
2022-11-29T13:40:31.703Z,16.43
2022-11-29T13:43:06.377Z,18.27
2022-11-29T13:45:43.335Z,15.63
2022-11-29T13:48:34.724Z,15.17
2022-11-29T13:51:23.791Z,13.50
2022-11-29T13:53:52.710Z,12.03
2022-11-29T13:56:32.845Z,13.10
2022-11-29T13:59:02.186Z,12.00
2022-11-29T14:01:45.331Z,12.87
2022-11-29T14:04:26.229Z,13.00
2022-11-29T14:07:04.986Z,13.45
2022-11-29T14:09:37.479Z,12.60
2022-11-29T14:12:18.890Z,12.80
2022-11-29T14:14:53.180Z,12.57
2022-11-29T14:17:46.573Z,12.77
2022-11-29T14:20:45.676Z,11.83
2022-11-29T14:23:30.776Z,12.20
2022-11-29T14:26:32.401Z,11.30
2022-11-29T14:29:01.464Z,10.53
2022-11-29T14:31:54.529Z,10.90
2022-11-29T14:34:43.180Z,11.30
2022-11-29T14:37:36.476Z,12.07
2022-11-29T14:40:18.760Z,10.93
2022-11-29T14:42:48.804Z,10.63
2022-11-29T14:45:26.772Z,11.43
2022-11-29T14:47:54.983Z,11.20
2022-11-29T14:50:34.779Z,11.87
2022-11-29T14:53:04.486Z,10.87
2022-11-29T14:55:36.594Z,12.70
2022-11-29T14:58:22.674Z,12.93
2022-11-29T15:01:09.962Z,11.47
2022-11-29T15:03:46.833Z,11.77
2022-11-29T15:06:24.098Z,10.77
2022-11-29T15:08:58.699Z,11.37
2022-11-29T15:11:49.518Z,11.60
2022-11-29T15:14:27.407Z,9.15
2022-11-29T15:17:17.068Z,10.73
2022-11-29T15:20:11.328Z,9.17
2022-11-29T15:22:49.183Z,11.13
2022-11-29T15:25:21.791Z,9.80
2022-11-29T15:27:54.490Z,10.97
2022-11-29T15:30:29.580Z,10.10
2022-11-29T15:32:58.778Z,9.37
2022-11-29T15:35:26.963Z,10.50
2022-11-29T15:37:57.390Z,10.47
2022-11-29T15:40:31.489Z,9.73
2022-11-29T15:43:12.804Z,9.73
2022-11-29T15:45:41.284Z,11.37
2022-11-29T15:48:16.703Z,10.53
2022-11-29T15:50:53.180Z,10.40
2022-11-29T15:53:27.366Z,10.27
2022-11-29T15:55:59.385Z,9.60
2022-11-29T15:58:29.676Z,10.67
2022-11-29T16:00:59.370Z,12.40
2022-11-29T16:03:30.911Z,11.27
2022-11-29T16:06:06.987Z,12.87
2022-11-29T16:08:42.650Z,14.43
2022-11-29T16:11:17.025Z,13.27
2022-11-29T16:14:02.349Z,13.47
2022-11-29T16:16:32.802Z,10.87
2022-11-29T16:19:11.637Z,11.95
2022-11-29T16:21:40.030Z,11.90
2022-11-29T16:24:22.026Z,12.30
2022-11-29T16:26:52.031Z,22.60
2022-11-29T16:29:24.515Z,16.83
2022-11-29T16:31:53.519Z,13.27
2022-11-29T16:34:27.182Z,12.50
2022-11-29T16:37:03.781Z,11.97
2022-11-29T16:39:35.421Z,13.33
2022-11-29T16:42:08.328Z,13.53
2022-11-29T16:44:55.693Z,12.37
2022-11-29T16:47:26.045Z,12.63
2022-11-29T16:50:17.276Z,12.85
2022-11-29T16:55:16.162Z,12.77
2022-11-29T16:57:45.211Z,13.70
2022-11-29T17:00:24.435Z,13.03
2022-11-29T17:02:52.564Z,14.17
2022-11-29T17:05:20.616Z,13.33
2022-11-29T17:07:49.435Z,12.80
2022-11-29T17:10:22.041Z,12.17
2022-11-29T17:12:50.430Z,13.03
2022-11-29T17:15:18.553Z,13.03
2022-11-29T17:17:47.793Z,12.90
2022-11-29T17:20:16.061Z,15.47
2022-11-29T17:22:44.158Z,12.80
2022-11-29T17:25:12.336Z,14.30
2022-11-29T17:27:41.776Z,15.77
2022-11-29T17:30:11.448Z,15.97
2022-11-29T17:32:39.597Z,15.03
2022-11-29T17:35:08.279Z,15.13
2022-11-29T17:37:36.503Z,14.80
2022-11-29T17:40:04.920Z,13.57
2022-11-29T17:42:33.038Z,13.53
2022-11-29T17:45:02.467Z,14.30
2022-11-29T17:47:30.731Z,14.17
2022-11-29T17:49:59.134Z,15.23
2022-11-29T17:52:27.214Z,14.53
2022-11-29T17:54:55.294Z,15.37
2022-11-29T17:57:23.621Z,15.10
2022-11-29T17:59:51.701Z,14.37
2022-11-29T18:02:21.181Z,14.93
2022-11-29T18:05:14.427Z,15.23
2022-11-29T18:07:58.140Z,17.10
2022-11-29T18:10:27.702Z,14.30
2022-11-29T18:12:55.771Z,14.27
2022-11-29T18:15:23.909Z,16.07
2022-11-29T18:17:53.586Z,15.17
2022-11-29T18:20:21.691Z,15.40
2022-11-29T18:22:49.845Z,14.90
2022-11-29T18:25:38.015Z,15.80
2022-11-29T18:28:08.459Z,15.30
2022-11-29T18:30:36.753Z,15.60
2022-11-29T18:33:06.225Z,15.53
2022-11-29T18:35:34.374Z,15.53
2022-11-29T18:38:17.858Z,15.43
2022-11-29T18:40:46.563Z,15.60
2022-11-29T18:43:17.297Z,15.07
2022-11-29T18:45:45.501Z,17.67
2022-11-29T18:48:15.001Z,14.63
2022-11-29T18:50:43.150Z,16.33
2022-11-29T18:53:11.301Z,16.87
2022-11-29T18:55:39.597Z,17.10
2022-11-29T18:58:08.268Z,16.97
2022-11-29T19:00:36.415Z,17.17
2022-11-29T19:03:04.612Z,16.97
2022-11-29T19:05:34.305Z,16.77
2022-11-29T19:08:02.464Z,18.53
2022-11-29T19:10:30.689Z,17.03
2022-11-29T19:12:58.764Z,19.87
2022-11-29T19:15:26.784Z,20.57
2022-11-29T19:17:54.958Z,17.93
2022-11-29T19:20:23.149Z,18.53
2022-11-29T19:23:00.176Z,19.67
2022-11-29T19:25:28.648Z,18.07
2022-11-29T19:27:57.179Z,17.93
2022-11-29T19:30:25.405Z,17.97
2022-11-29T19:32:53.747Z,19.80
2022-11-29T19:35:21.808Z,18.83
2022-11-29T19:37:50.085Z,18.83
2022-11-29T19:40:20.115Z,19.37
2022-11-29T19:42:48.596Z,20.10
2022-11-29T19:45:18.183Z,18.17
2022-11-29T19:47:46.714Z,18.30
2022-11-29T19:50:14.950Z,18.17
2022-11-29T19:52:43.320Z,17.73
2022-11-29T19:55:11.510Z,17.83
2022-11-29T19:57:40.985Z,18.47
2022-11-29T20:00:10.303Z,18.20
2022-11-29T20:02:42.612Z,18.00
2022-11-29T20:05:12.003Z,16.73
2022-11-29T20:07:40.139Z,16.13
2022-11-29T20:10:09.176Z,16.77
2022-11-29T20:12:37.436Z,16.30
2022-11-29T20:15:08.792Z,18.47
2022-11-29T20:17:38.015Z,19.47
2022-11-29T20:20:07.462Z,17.50
2022-11-29T20:22:35.754Z,15.67
2022-11-29T20:25:04.157Z,16.47
2022-11-29T20:27:32.630Z,15.97
2022-11-29T20:30:00.785Z,17.47
2022-11-29T20:32:33.767Z,15.37
2022-11-29T20:35:02.688Z,17.33
2022-11-29T20:37:49.499Z,17.27
2022-11-29T20:40:21.066Z,17.63
2022-11-29T20:43:06.162Z,15.83
2022-11-29T20:45:34.899Z,15.30
2022-11-29T20:48:13.289Z,18.37
2022-11-29T20:50:44.165Z,16.17
2022-11-29T20:53:32.640Z,15.57
2022-11-29T20:56:01.573Z,15.73
2022-11-29T20:58:29.797Z,15.77
2022-11-29T21:01:02.175Z,15.60
2022-11-29T21:03:32.246Z,16.53
2022-11-29T21:06:03.702Z,16.83
2022-11-29T21:08:32.027Z,17.13
2022-11-29T21:11:03.714Z,17.97
2022-11-29T21:13:32.457Z,17.43
2022-11-29T21:16:01.677Z,15.40
2022-11-29T21:18:32.771Z,16.93
2022-11-29T21:23:50.433Z,15.77
2022-11-29T21:26:24.265Z,16.55
2022-11-29T21:29:00.997Z,16.27
2022-11-29T21:31:29.667Z,16.17
2022-11-29T21:33:59.792Z,16.27
2022-11-29T21:36:28.226Z,15.80
2022-11-29T21:38:58.740Z,16.97
2022-11-29T21:41:29.039Z,17.87
2022-11-29T21:44:12.555Z,16.67
2022-11-29T21:46:40.729Z,17.20
2022-11-29T21:49:10.172Z,16.53
2022-11-29T21:51:39.488Z,16.80
2022-11-29T21:54:07.619Z,16.90
2022-11-29T21:56:35.674Z,16.23
2022-11-29T21:59:03.861Z,16.67
2022-11-29T22:01:33.831Z,17.23
2022-11-29T22:04:05.660Z,17.97
2022-11-29T22:06:36.754Z,16.63
2022-11-29T22:11:36.207Z,16.48
2022-11-29T22:14:16.183Z,17.73
2022-11-29T22:16:45.798Z,18.20
2022-11-29T22:19:15.374Z,17.03
2022-11-29T22:21:46.624Z,17.50
2022-11-29T22:26:43.734Z,15.77
2022-11-29T22:29:13.956Z,15.70
2022-11-29T22:31:42.767Z,17.40
2022-11-29T22:34:11.813Z,17.33
2022-11-29T22:36:40.851Z,17.73
2022-11-29T22:39:10.303Z,17.90
2022-11-29T22:41:39.590Z,16.50
2022-11-29T22:44:08.420Z,17.67
2022-11-29T22:46:40.735Z,16.65
2022-11-29T22:49:09.405Z,17.42
2022-11-29T22:51:38.820Z,17.83
2022-11-29T22:54:09.474Z,15.87
2022-11-29T22:56:40.829Z,19.50
2022-11-29T22:59:09.195Z,17.80
2022-11-29T23:01:38.865Z,17.63
2022-11-29T23:04:35.046Z,17.70
2022-11-29T23:07:03.288Z,17.13
2022-11-29T23:09:31.457Z,17.67
2022-11-29T23:12:00.880Z,17.67
2022-11-29T23:14:29.056Z,18.20
2022-11-29T23:16:57.114Z,16.57
2022-11-29T23:19:25.218Z,17.43
2022-11-29T23:21:56.575Z,18.33
2022-11-29T23:26:52.531Z,16.27
2022-11-29T23:29:21.995Z,16.57
2022-11-29T23:31:50.515Z,17.40
2022-11-29T23:34:18.669Z,18.93
2022-11-29T23:36:51.329Z,17.83
2022-11-29T23:39:20.871Z,18.97
2022-11-29T23:41:48.976Z,19.63
2022-11-29T23:44:16.974Z,19.70
2022-11-29T23:46:46.572Z,17.73
2022-11-29T23:49:14.734Z,19.23
2022-11-29T23:51:42.835Z,19.23
2022-11-29T23:54:10.903Z,19.60
2022-11-29T23:56:38.983Z,20.23
2022-11-29T23:59:07.220Z,20.43
